Time;durP1;ratioP1;P1;durP2;ratioP2;P2;SDS_P1;SDS_P2;PMS_P1;PMS_P2;Temp;Humidity;BMP_temperature;BMP_pressure;BME280_temperature;BME280_humidity;BME280_pressure;Samples;Min_cycle;Max_cycle;Signal;HPM_P1;HPM_P2
2022/06/21 00:06:29;;;;;;;7.48;2.33;;;;;;;13.96;100.00;99536.78;740474;1155;115707;-76
2022/06/21 00:21:36;;;;;;;5.65;2.33;;;;;;;13.93;100.00;99517.84;740711;1154;114427;-75
2022/06/21 00:36:39;;;;;;;6.08;2.43;;;;;;;14.07;100.00;99490.71;740088;1155;114034;-75
2022/06/21 00:51:42;;;;;;;6.28;3.03;;;;;;;13.98;100.00;99468.85;740034;1153;115540;-74
2022/06/21 01:06:49;;;;;;;15.13;6.45;;;;;;;14.00;100.00;99468.67;740136;1153;115649;-75
2022/06/21 01:21:58;;;;;;;7.13;4.18;;;;;;;14.01;100.00;99483.50;740082;1155;115100;-75
2022/06/21 01:37:08;;;;;;;5.50;4.48;;;;;;;13.98;100.00;99465.41;740213;1155;114118;-75
2022/06/21 01:52:14;;;;;;;11.63;4.53;;;;;;;13.96;100.00;99454.20;739957;1155;115741;-74
2022/06/21 02:07:22;;;;;;;7.27;4.87;;;;;;;13.78;100.00;99459.80;740293;1155;115488;-75
2022/06/21 02:22:27;;;;;;;5.10;4.15;;;;;;;13.76;100.00;99456.51;740049;1155;115567;-75
2022/06/21 02:37:32;;;;;;;5.80;4.58;;;;;;;13.67;100.00;99445.20;740479;1155;114596;-75
2022/06/21 02:52:41;;;;;;;5.70;4.40;;;;;;;13.65;100.00;99441.94;740608;1154;115452;-76
2022/06/21 03:07:53;;;;;;;5.05;3.70;;;;;;;13.57;100.00;99434.90;740770;1153;114955;-74
2022/06/21 03:22:56;;;;;;;4.15;2.85;;;;;;;13.58;100.00;99435.71;740074;1155;115398;-75
2022/06/21 03:37:59;;;;;;;4.05;3.20;;;;;;;13.41;100.00;99433.20;740569;1155;114605;-75
2022/06/21 03:53:08;;;;;;;3.75;2.53;;;;;;;13.36;100.00;99432.06;740182;1155;114465;-75
2022/06/21 04:08:30;;;;;;;2.38;1.78;;;;;;;13.40;100.00;99417.57;740316;1155;115046;-75
2022/06/21 04:23:53;;;;;;;3.03;2.13;;;;;;;13.41;100.00;99430.56;740481;1153;115160;-77
2022/06/21 04:39:08;;;;;;;4.20;2.40;;;;;;;13.44;100.00;99435.47;740252;1155;114266;-77
2022/06/21 04:54:23;;;;;;;3.95;2.50;;;;;;;13.59;100.00;99437.36;743424;1153;115291;-75
2022/06/21 05:09:30;;;;;;;5.43;2.70;;;;;;;13.72;100.00;99447.31;740307;1153;114683;-75
2022/06/21 05:24:32;;;;;;;3.90;2.05;;;;;;;13.71;100.00;99451.78;740079;1154;115237;-75
2022/06/21 05:39:45;;;;;;;4.48;2.73;;;;;;;13.74;100.00;99456.69;740071;1155;114378;-75
2022/06/21 05:55:01;;;;;;;2.65;1.90;;;;;;;13.81;100.00;99469.98;740260;1154;114428;-75
2022/06/21 06:10:05;;;;;;;2.40;1.50;;;;;;;13.58;100.00;99468.17;740625;1153;115165;-75
2022/06/21 06:25:27;;;;;;;5.03;2.28;;;;;;;13.40;100.00;99473.70;740879;1153;114960;-72
2022/06/21 06:40:37;;;;;;;2.83;1.70;;;;;;;13.75;100.00;99483.86;740090;1153;115681;-70
2022/06/21 06:55:51;;;;;;;3.80;2.33;;;;;;;13.97;100.00;99519.94;740342;1153;114182;-70
2022/06/21 07:11:10;;;;;;;3.25;2.68;;;;;;;14.26;100.00;99530.78;742667;1155;115441;-70
2022/06/21 07:26:22;;;;;;;1.75;1.23;;;;;;;14.04;100.00;99562.28;740092;1155;115361;-69
2022/06/21 07:41:32;;;;;;;4.75;1.43;;;;;;;14.71;100.00;99552.83;741318;1155;114991;-69
2022/06/21 07:56:41;;;;;;;2.70;1.60;;;;;;;15.79;100.00;99541.81;741186;1155;115197;-69
2022/06/21 08:11:47;;;;;;;3.38;1.70;;;;;;;15.99;100.00;99544.69;740369;1154;115481;-69
2022/06/21 08:27:00;;;;;;;7.65;4.20;;;;;;;17.02;100.00;99554.88;740581;1153;114945;-70
2022/06/21 08:42:12;;;;;;;2.78;1.73;;;;;;;17.67;99.33;99545.77;740504;1155;114788;-74
2022/06/21 08:57:39;;;;;;;1.97;1.37;;;;;;;17.88;90.94;99548.30;740318;1155;115219;-74
2022/06/21 09:13:16;;;;;;;4.15;1.60;;;;;;;18.66;87.24;99549.59;740121;1153;113948;-73
2022/06/21 09:28:34;;;;;;;5.93;1.67;;;;;;;19.82;83.40;99559.67;740687;1153;114528;-74
2022/06/21 09:43:56;;;;;;;3.68;1.25;;;;;;;18.60;82.77;99598.21;740195;1155;115466;-74
2022/06/21 09:59:13;;;;;;;3.40;1.13;;;;;;;16.12;89.06;99655.92;740161;1155;114572;-74
2022/06/21 10:14:31;;;;;;;1.33;1.10;;;;;;;16.03;96.78;99635.08;740291;1155;114440;-75
2022/06/21 10:29:59;;;;;;;1.87;1.00;;;;;;;15.56;98.87;99666.19;740047;1154;115311;-74
2022/06/21 10:45:25;;;;;;;2.28;1.55;;;;;;;15.58;100.00;99662.36;740160;1153;113836;-73
2022/06/21 11:01:21;;;;;;;2.93;0.90;;;;;;;17.61;100.00;99643.67;739715;1155;115045;-75
2022/06/21 11:16:40;;;;;;;3.45;1.23;;;;;;;19.50;97.11;99634.88;740278;1153;114614;-76
2022/06/21 11:31:43;;;;;;;1.07;0.80;;;;;;;20.29;85.73;99666.70;740798;1155;114421;-73
2022/06/21 11:46:55;;;;;;;1.28;0.78;;;;;;;20.35;82.45;99683.66;740204;1153;114488;-82
2022/06/21 12:02:08;;;;;;;2.78;0.90;;;;;;;20.09;80.67;99704.09;740691;1154;114175;-80
2022/06/21 12:17:14;;;;;;;5.40;1.20;;;;;;;20.70;81.47;99721.38;740636;1154;113783;-80
2022/06/21 12:32:24;;;;;;;4.07;2.30;;;;;;;21.51;77.00;99729.55;741129;1153;113939;-79
2022/06/21 12:47:51;;;;;;;2.83;0.93;;;;;;;21.21;75.86;99734.75;740677;1154;114181;-78
2022/06/21 13:03:13;;;;;;;2.90;1.20;;;;;;;20.81;75.62;99727.05;740839;1155;113835;-78
2022/06/21 13:18:45;;;;;;;3.73;1.40;;;;;;;21.84;74.18;99732.91;740999;1154;114137;-82
2022/06/21 13:34:05;;;;;;;5.50;2.67;;;;;;;22.11;73.77;99736.09;740998;1155;114632;-85
2022/06/21 13:49:20;;;;;;;2.90;1.20;;;;;;;21.64;70.14;99757.15;741103;1155;114755;-80
2022/06/21 14:04:51;;;;;;;3.90;1.10;;;;;;;21.88;68.21;99753.61;740615;1155;115483;-78
2022/06/21 14:20:05;;;;;;;2.03;1.58;;;;;;;21.33;71.85;99781.00;740769;1155;114589;-79
2022/06/21 14:35:20;;;;;;;3.73;1.40;;;;;;;19.83;76.51;99798.16;740412;1154;114569;-78
2022/06/21 14:50:31;;;;;;;6.98;3.90;;;;;;;19.16;81.50;99798.16;740254;1155;114007;-78
2022/06/21 15:05:57;;;;;;;19.20;12.78;;;;;;;19.24;83.24;99792.63;740212;1155;115075;-78
2022/06/21 15:21:10;;;;;;;4.70;2.90;;;;;;;19.82;85.69;99796.52;740806;1155;114340;-78
2022/06/21 15:36:19;;;;;;;3.88;2.20;;;;;;;20.26;82.73;99798.43;740640;1153;114884;-84
2022/06/21 15:51:37;;;;;;;3.30;1.87;;;;;;;20.29;81.86;99807.84;743727;1155;114243;-84
2022/06/21 16:06:50;;;;;;;5.83;1.70;;;;;;;21.56;81.87;99816.95;741191;1154;115300;-79
2022/06/21 16:21:58;;;;;;;1.78;1.63;;;;;;;22.21;77.98;99813.00;740080;1155;115478;-76
2022/06/21 16:37:19;;;;;;;5.87;2.37;;;;;;;21.77;75.52;99797.05;739992;1153;114361;-83
2022/06/21 16:52:28;;;;;;;;;;;;;;;22.06;72.49;99835.55;740103;1155;115490;-81
2022/06/21 17:07:32;;;;;;;2.20;1.10;;;;;;;21.95;72.61;99828.30;740292;1155;100379;-81
2022/06/21 17:22:51;;;;;;;3.13;2.00;;;;;;;21.67;74.20;99845.60;740399;1153;115405;-79
2022/06/21 17:38:22;;;;;;;2.90;1.63;;;;;;;20.82;75.79;99851.30;740032;1153;114952;-82
2022/06/21 17:53:35;;;;;;;3.58;2.28;;;;;;;20.52;77.41;99841.98;739755;1153;115228;-81
2022/06/21 18:09:04;;;;;;;6.55;3.60;;;;;;;20.41;78.62;99851.43;740524;1155;114757;-79
2022/06/21 18:24:46;;;;;;;5.20;2.60;;;;;;;19.90;79.00;99868.98;740215;1155;114103;-80
2022/06/21 18:40:17;;;;;;;4.60;2.05;;;;;;;19.43;80.30;99874.27;740880;1155;114540;-82
2022/06/21 18:55:30;;;;;;;13.27;4.63;;;;;;;18.92;82.55;99880.91;742145;1153;114232;-87
2022/06/21 19:10:38;;;;;;;15.67;4.93;;;;;;;18.46;84.63;99898.28;741045;1155;115234;-77
2022/06/21 19:26:02;;;;;;;9.10;5.77;;;;;;;18.00;86.39;99913.91;740945;1155;115327;-74
2022/06/21 19:41:28;;;;;;;13.30;4.68;;;;;;;17.85;88.18;99922.74;741678;1153;115282;-76
2022/06/21 19:56:30;;;;;;;7.40;3.97;;;;;;;17.55;88.64;99952.08;740123;1155;115020;-76
2022/06/21 20:11:58;;;;;;;2.63;1.77;;;;;;;17.40;89.14;99959.27;740103;1153;115090;-75
2022/06/21 20:27:29;;;;;;;2.45;1.90;;;;;;;17.17;90.27;99944.34;740165;1155;114726;-76
2022/06/21 20:58:07;;;;;;;5.10;3.53;;;;;;;16.58;93.84;99969.03;740090;1153;114936;-76
2022/06/21 21:13:16;;;;;;;11.07;4.90;;;;;;;16.40;95.19;99974.67;740605;1152;114371;-75
2022/06/21 21:28:26;;;;;;;9.13;4.20;;;;;;;15.98;95.20;99982.14;740070;1155;115017;-75
2022/06/21 21:43:37;;;;;;;7.13;3.53;;;;;;;15.58;96.24;99968.21;740101;1155;115325;-74
2022/06/21 21:58:42;;;;;;;6.30;3.50;;;;;;;15.43;97.01;99962.86;740201;1153;115518;-74
2022/06/21 22:14:04;;;;;;;13.80;6.15;;;;;;;15.11;98.01;99956.74;740755;1155;114456;-73
2022/06/21 22:29:26;;;;;;;15.55;7.30;;;;;;;14.79;99.40;99969.09;740226;1154;115376;-74
2022/06/21 22:45:00;;;;;;;12.38;4.98;;;;;;;14.63;99.88;99964.66;740053;1153;114461;-74
2022/06/21 23:00:32;;;;;;;8.48;4.78;;;;;;;14.27;100.00;99950.06;739796;1153;115459;-73
2022/06/21 23:15:39;;;;;;;9.40;5.28;;;;;;;14.18;100.00;99953.70;740153;1155;115707;-74
2022/06/21 23:30:42;;;;;;;9.90;5.35;;;;;;;13.98;100.00;99958.50;740006;1155;114513;-74
2022/06/21 23:45:44;;;;;;;7.37;4.43;;;;;;;13.86;100.00;99950.10;739595;1155;114199;-73
